Time;durP1;ratioP1;P1;durP2;ratioP2;P2;SDS_P1;SDS_P2;PMS_P1;PMS_P2;Temp;Humidity;BMP_temperature;BMP_pressure;BME280_temperature;BME280_humidity;BME280_pressure;Samples;Min_cycle;Max_cycle;Signal;HPM_P1;HPM_P2
2022/12/03 00:01:49;;;;;;;20.27;12.93;;;7.50;99.90;;;;;;5042626;28;20041;-77
2022/12/03 00:04:14;;;;;;;16.00;12.32;;;7.50;99.90;;;;;;5045123;28;20021;-77
2022/12/03 00:06:40;;;;;;;15.05;12.40;;;7.50;99.90;;;;;;5045816;28;20479;-77
2022/12/03 00:09:06;;;;;;;15.73;12.35;;;7.40;99.90;;;;;;5042978;28;20083;-77
2022/12/03 00:11:31;;;;;;;15.02;12.10;;;7.40;99.90;;;;;;5045777;28;20021;-77
2022/12/03 00:13:57;;;;;;;15.98;12.80;;;7.40;99.90;;;;;;5042308;28;20029;-77
2022/12/03 00:16:23;;;;;;;16.48;12.43;;;7.40;99.90;;;;;;5044954;28;20439;-77
2022/12/03 00:18:49;;;;;;;17.00;12.02;;;7.40;99.90;;;;;;5041926;28;20033;-77
2022/12/03 00:21:15;;;;;;;18.08;12.13;;;7.40;99.90;;;;;;5046021;28;20038;-77
2022/12/03 00:23:40;;;;;;;15.60;11.90;;;7.50;99.90;;;;;;5042264;28;20026;-77
2022/12/03 00:26:06;;;;;;;16.73;12.13;;;7.50;99.90;;;;;;5046263;28;20063;-77
2022/12/03 00:28:32;;;;;;;14.60;11.07;;;7.50;99.90;;;;;;5042313;28;20045;-77
2022/12/03 00:30:57;;;;;;;14.30;11.73;;;7.50;99.90;;;;;;5045857;28;20559;-77
2022/12/03 00:33:23;;;;;;;13.68;11.18;;;7.50;99.90;;;;;;5044219;28;20032;-77
2022/12/03 00:35:49;;;;;;;13.77;11.20;;;7.50;99.90;;;;;;5043062;28;20159;-77
2022/12/03 00:38:15;;;;;;;14.65;10.50;;;7.50;99.90;;;;;;5044985;28;20037;-77
2022/12/03 00:40:40;;;;;;;12.90;10.65;;;7.50;99.90;;;;;;5044443;28;20029;-77
2022/12/03 00:43:06;;;;;;;11.98;10.55;;;7.50;99.90;;;;;;5042926;28;20056;-77
2022/12/03 00:45:32;;;;;;;11.88;10.50;;;7.50;99.90;;;;;;5046697;28;20029;-77
2022/12/03 00:47:58;;;;;;;13.75;10.20;;;7.50;99.90;;;;;;5041755;28;20104;-77
2022/12/03 00:50:23;;;;;;;14.02;11.07;;;7.50;99.90;;;;;;5045177;28;20021;-77
2022/12/03 00:52:49;;;;;;;12.00;9.85;;;7.50;99.90;;;;;;5043316;28;20033;-77
2022/12/03 00:55:15;;;;;;;11.73;10.52;;;7.50;99.90;;;;;;5046174;28;20041;-77
2022/12/03 00:57:41;;;;;;;11.63;9.55;;;7.50;99.90;;;;;;5046038;28;20034;-77
2022/12/03 01:00:08;;;;;;;12.63;9.60;;;7.60;99.90;;;;;;5038308;28;20112;-77
2022/12/03 01:02:34;;;;;;;15.00;10.40;;;7.50;99.90;;;;;;5045944;28;20056;-77
2022/12/03 01:05:00;;;;;;;12.70;10.52;;;7.50;99.90;;;;;;5045915;28;20479;-77
2022/12/03 01:07:25;;;;;;;13.70;9.48;;;7.40;99.90;;;;;;5042262;28;20021;-77
2022/12/03 01:09:51;;;;;;;13.30;10.18;;;7.50;99.90;;;;;;5042080;28;20441;-77
2022/12/03 01:12:17;;;;;;;11.50;9.15;;;7.50;99.90;;;;;;5043850;28;20029;-77
2022/12/03 01:14:42;;;;;;;10.43;9.20;;;7.50;99.90;;;;;;5042593;28;20044;-77
2022/12/03 01:17:08;;;;;;;14.40;10.95;;;7.50;99.90;;;;;;5042124;28;20039;-77
2022/12/03 01:19:34;;;;;;;13.05;9.98;;;7.50;99.90;;;;;;5044206;28;20053;-77
2022/12/03 01:22:01;;;;;;;11.07;9.00;;;7.50;99.90;;;;;;5041998;28;20055;-77
2022/12/03 01:24:27;;;;;;;10.57;8.43;;;7.50;99.90;;;;;;5042421;28;20036;-77
2022/12/03 01:26:54;;;;;;;12.32;9.73;;;7.60;99.90;;;;;;5043652;28;20025;-77
2022/12/03 01:29:20;;;;;;;12.27;9.88;;;7.60;99.90;;;;;;5046079;28;20037;-77
2022/12/03 01:34:30;;;;;;;12.68;10.65;;;7.60;99.90;;;;;;5041424;28;20090;-77
2022/12/03 01:36:56;;;;;;;10.80;9.10;;;7.60;99.90;;;;;;5040302;28;20030;-77
2022/12/03 01:39:21;;;;;;;11.80;10.18;;;7.60;99.90;;;;;;5044744;28;20036;-75
2022/12/03 01:41:49;;;;;;;14.85;9.45;;;7.70;99.90;;;;;;5043643;28;20024;-77
2022/12/03 01:44:22;;;;;;;13.32;10.20;;;7.70;99.90;;;;;;5045119;28;20399;-77
2022/12/03 01:46:50;;;;;;;11.68;9.80;;;7.80;99.90;;;;;;5041245;28;20025;-77
2022/12/03 01:49:19;;;;;;;10.68;9.55;;;7.80;99.90;;;;;;5044745;28;20112;-77
2022/12/03 01:51:46;;;;;;;11.93;10.15;;;7.70;99.90;;;;;;5041343;28;20049;-77
2022/12/03 01:54:19;;;;;;;11.88;10.65;;;7.80;99.90;;;;;;5043397;28;20027;-77
2022/12/03 01:56:46;;;;;;;12.48;10.68;;;7.70;99.90;;;;;;5040703;28;20028;-77
2022/12/03 01:59:17;;;;;;;11.48;10.27;;;7.60;99.90;;;;;;5042747;28;20053;-77
2022/12/03 02:01:43;;;;;;;11.25;9.27;;;7.60;99.90;;;;;;5040799;28;20551;-77
2022/12/03 02:04:12;;;;;;;10.05;9.00;;;7.60;99.90;;;;;;5042172;28;20061;-77
2022/12/03 02:06:39;;;;;;;11.65;8.77;;;7.60;99.90;;;;;;5045017;28;20033;-77
2022/12/03 02:09:07;;;;;;;11.48;9.07;;;7.70;99.90;;;;;;5042072;28;20029;-77
2022/12/03 02:11:37;;;;;;;11.32;10.13;;;7.70;99.90;;;;;;5041939;28;20061;-77
2022/12/03 02:14:06;;;;;;;11.63;9.77;;;7.70;99.90;;;;;;5040726;28;20064;-77
2022/12/03 02:16:35;;;;;;;11.40;9.82;;;7.70;99.90;;;;;;5042723;28;20079;-77
2022/12/03 02:19:01;;;;;;;12.85;10.35;;;7.70;99.90;;;;;;5041330;28;20032;-78
2022/12/03 02:21:37;;;;;;;11.43;10.23;;;7.70;99.90;;;;;;5042349;28;20387;-78
2022/12/03 02:24:28;;;;;;;10.93;9.50;;;7.70;99.90;;;;;;5040133;28;20038;-77
2022/12/03 02:26:53;;;;;;;11.93;10.07;;;7.70;99.90;;;;;;5040478;28;20021;-77
2022/12/03 02:29:19;;;;;;;11.82;9.93;;;7.70;99.90;;;;;;5040867;28;20384;-77
2022/12/03 02:31:45;;;;;;;11.93;9.68;;;7.70;99.90;;;;;;5042506;28;20029;-77
2022/12/03 02:34:30;;;;;;;11.27;9.98;;;7.70;99.90;;;;;;5039204;28;20087;-77
2022/12/03 02:36:56;;;;;;;11.05;9.43;;;7.70;99.90;;;;;;5040166;28;20167;-77
2022/12/03 02:39:22;;;;;;;13.10;10.70;;;7.70;99.90;;;;;;5043946;28;20120;-77
2022/12/03 02:44:52;;;;;;;10.88;9.77;;;7.70;99.90;;;;;;5042074;28;20024;-77
2022/12/03 02:47:20;;;;;;;11.05;9.88;;;7.70;99.90;;;;;;5032932;28;20025;-77
2022/12/03 02:49:46;;;;;;;11.88;9.57;;;7.70;99.90;;;;;;5038296;28;20044;-77
2022/12/03 02:52:12;;;;;;;10.57;9.45;;;7.60;99.90;;;;;;5038905;28;20025;-77
2022/12/03 02:54:38;;;;;;;13.52;10.05;;;7.60;99.90;;;;;;5040036;28;20483;-77
2022/12/03 02:57:04;;;;;;;11.70;9.70;;;7.60;99.90;;;;;;5043450;28;20167;-77
2022/12/03 02:59:29;;;;;;;12.02;9.40;;;7.60;99.90;;;;;;5039123;28;20085;-77
2022/12/03 03:01:55;;;;;;;9.73;8.80;;;7.70;99.90;;;;;;5040486;28;20572;-77
2022/12/03 03:04:23;;;;;;;13.85;9.45;;;7.70;99.90;;;;;;5039705;28;20220;-77
2022/12/03 03:06:50;;;;;;;17.88;10.38;;;7.70;99.90;;;;;;5042815;28;20021;-78
2022/12/03 03:09:16;;;;;;;13.02;10.10;;;7.60;99.90;;;;;;5043522;28;20391;-77
2022/12/03 03:11:42;;;;;;;10.02;9.02;;;7.60;99.90;;;;;;5039084;28;20029;-77
2022/12/03 03:14:07;;;;;;;12.20;9.82;;;7.60;99.90;;;;;;5039518;28;20435;-77
2022/12/03 03:16:33;;;;;;;12.77;11.00;;;7.60;99.90;;;;;;5039964;28;20033;-78
2022/12/03 03:19:00;;;;;;;11.80;9.60;;;7.60;99.90;;;;;;5044581;28;20061;-77
2022/12/03 03:21:26;;;;;;;12.82;10.07;;;7.60;99.90;;;;;;5039294;28;20483;-78
2022/12/03 03:23:51;;;;;;;13.20;9.88;;;7.60;99.90;;;;;;5039377;28;20026;-77
2022/12/03 03:26:17;;;;;;;13.32;9.52;;;7.60;99.90;;;;;;5043331;28;20049;-77
2022/12/03 03:28:47;;;;;;;12.35;9.82;;;7.60;99.90;;;;;;5043769;28;20040;-77
2022/12/03 03:31:15;;;;;;;11.90;8.98;;;7.60;99.90;;;;;;5039374;28;20311;-77
2022/12/03 03:33:43;;;;;;;10.00;8.95;;;7.60;99.90;;;;;;5037914;28;20120;-77
2022/12/03 03:36:09;;;;;;;12.25;9.75;;;7.60;99.90;;;;;;5041869;28;20029;-77
2022/12/03 03:38:36;;;;;;;11.02;9.68;;;7.60;99.90;;;;;;5040857;28;20033;-77
2022/12/03 03:41:04;;;;;;;10.80;9.05;;;7.60;99.90;;;;;;5041920;28;20676;-77
2022/12/03 03:43:33;;;;;;;10.65;9.23;;;7.60;99.90;;;;;;5040793;28;20033;-78
2022/12/03 03:46:01;;;;;;;10.77;9.63;;;7.70;99.90;;;;;;5040329;28;20368;-78
2022/12/03 03:48:27;;;;;;;12.65;9.38;;;7.70;99.90;;;;;;5039626;28;20033;-77
2022/12/03 03:50:53;;;;;;;10.98;9.48;;;7.70;99.90;;;;;;5043102;28;20026;-77
2022/12/03 03:53:20;;;;;;;12.90;9.15;;;7.70;99.90;;;;;;5041883;28;20477;-78
2022/12/03 03:55:47;;;;;;;12.70;9.27;;;7.60;99.90;;;;;;5040474;28;20017;-77
2022/12/03 03:58:13;;;;;;;10.75;9.52;;;7.70;99.90;;;;;;5039577;28;20391;-78
2022/12/03 04:00:38;;;;;;;12.02;9.00;;;7.70;99.90;;;;;;5044733;28;20029;-77
2022/12/03 04:03:05;;;;;;;10.52;8.80;;;7.70;99.90;;;;;;5049096;28;20047;-77
2022/12/03 04:05:31;;;;;;;9.45;8.45;;;7.70;99.90;;;;;;5039526;28;20510;-77
2022/12/03 04:07:58;;;;;;;9.93;8.70;;;7.70;99.90;;;;;;5047350;28;20028;-77
2022/12/03 04:13:08;;;;;;;9.98;8.90;;;7.70;99.90;;;;;;5041721;28;20126;-76
2022/12/03 04:15:33;;;;;;;9.77;8.77;;;7.80;99.90;;;;;;5040533;28;20455;-77
2022/12/03 04:22:38;;;;;;;12.00;8.80;;;7.80;99.90;;;;;;5051732;28;20084;-77
2022/12/03 04:23:43;;;;;;;9.20;7.88;;;7.80;99.90;;;;;;5040253;28;20037;-77
2022/12/03 04:28:53;;;;;;;10.88;8.48;;;7.80;99.90;;;;;;5041292;28;20044;-77
2022/12/03 04:36:47;;;;;;;10.70;8.52;;;7.80;99.90;;;;;;5043136;28;20040;-77
2022/12/03 04:39:13;;;;;;;9.75;8.48;;;7.80;99.90;;;;;;5043491;28;20021;-77
2022/12/03 04:41:38;;;;;;;10.05;8.95;;;7.80;99.90;;;;;;5042049;28;20036;-77
2022/12/03 04:46:48;;;;;;;10.43;8.45;;;7.80;99.90;;;;;;5042209;28;20114;-77
2022/12/03 04:49:14;;;;;;;10.95;8.15;;;7.80;99.90;;;;;;5044773;28;20104;-77
2022/12/03 04:51:40;;;;;;;10.13;8.80;;;7.80;99.90;;;;;;5045819;28;20070;-77
2022/12/03 04:54:06;;;;;;;8.85;7.95;;;7.80;99.90;;;;;;5040925;28;20394;-77
2022/12/03 04:56:32;;;;;;;10.15;8.98;;;7.80;99.90;;;;;;5045450;28;20033;-77
2022/12/03 04:58:57;;;;;;;10.35;8.00;;;7.80;99.90;;;;;;5040134;28;20041;-77
2022/12/03 05:01:23;;;;;;;9.07;8.18;;;7.90;99.90;;;;;;5046346;28;20419;-78
2022/12/03 05:03:48;;;;;;;9.10;8.18;;;7.90;99.90;;;;;;5024809;28;20067;-76
2022/12/03 05:06:14;;;;;;;9.90;8.88;;;7.90;99.90;;;;;;5023154;28;20494;-77
2022/12/03 05:08:40;;;;;;;10.63;8.57;;;7.90;99.90;;;;;;5024153;28;20022;-77
2022/12/03 05:11:06;;;;;;;11.52;9.43;;;7.90;99.90;;;;;;5022413;28;20364;-77
2022/12/03 05:13:32;;;;;;;10.18;9.02;;;7.90;99.90;;;;;;5022482;28;20117;-76
2022/12/03 05:15:57;;;;;;;9.60;8.25;;;7.90;99.90;;;;;;5024185;28;20034;-77
2022/12/03 05:18:23;;;;;;;9.55;8.57;;;7.90;99.90;;;;;;5023931;28;20542;-76
2022/12/03 05:20:49;;;;;;;9.27;8.30;;;8.00;99.90;;;;;;5024014;28;20407;-77
2022/12/03 05:23:15;;;;;;;10.63;9.27;;;8.00;99.90;;;;;;5020901;28;20364;-77
2022/12/03 05:25:40;;;;;;;10.32;9.05;;;8.00;99.90;;;;;;5023290;28;20025;-77
2022/12/03 05:28:07;;;;;;;9.63;8.25;;;8.00;99.90;;;;;;5024418;28;20378;-77
2022/12/03 05:30:33;;;;;;;12.07;9.25;;;8.00;99.90;;;;;;5021541;28;20034;-78
2022/12/03 05:32:59;;;;;;;11.82;9.23;;;8.00;99.90;;;;;;5025028;28;20105;-76
2022/12/03 05:35:26;;;;;;;11.15;9.50;;;8.00;99.90;;;;;;5019677;28;20121;-77
2022/12/03 05:37:52;;;;;;;10.68;9.35;;;8.00;99.90;;;;;;5020304;28;20033;-77
2022/12/03 05:40:18;;;;;;;11.85;9.68;;;8.00;99.90;;;;;;5024756;28;20388;-76
2022/12/03 05:42:52;;;;;;;11.10;9.57;;;8.00;99.90;;;;;;5023949;28;20033;-76
2022/12/03 05:45:27;;;;;;;12.02;10.20;;;8.00;99.90;;;;;;5023701;28;20057;-77
2022/12/03 05:47:55;;;;;;;11.88;9.77;;;8.00;99.90;;;;;;5023599;28;20084;-77
2022/12/03 05:50:22;;;;;;;11.68;9.75;;;8.00;99.90;;;;;;5022248;28;20104;-77
2022/12/03 05:52:48;;;;;;;10.35;9.25;;;8.00;99.90;;;;;;5022309;28;20025;-77
2022/12/03 05:55:14;;;;;;;13.43;10.13;;;8.00;99.90;;;;;;5020815;28;20113;-76
2022/12/03 05:57:40;;;;;;;11.68;9.75;;;8.00;99.90;;;;;;5022685;28;20036;-76
2022/12/03 06:00:13;;;;;;;15.10;10.88;;;7.90;99.90;;;;;;5020906;28;20026;-77
2022/12/03 06:02:39;;;;;;;12.90;10.15;;;8.00;99.90;;;;;;5031165;28;20502;-78
2022/12/03 06:05:06;;;;;;;12.30;10.45;;;8.00;99.90;;;;;;5042028;28;20277;-77
2022/12/03 06:07:32;;;;;;;12.15;10.07;;;8.00;99.90;;;;;;5041748;28;20495;-77
2022/12/03 06:09:58;;;;;;;13.10;11.32;;;7.90;99.90;;;;;;5042148;28;20040;-77
2022/12/03 06:12:24;;;;;;;12.43;10.07;;;7.80;99.90;;;;;;5039986;28;20426;-77
2022/12/03 06:14:49;;;;;;;11.93;9.73;;;7.80;99.90;;;;;;5042414;28;20028;-77
2022/12/03 06:17:15;;;;;;;10.93;9.80;;;7.90;99.90;;;;;;5039379;28;20113;-77
2022/12/03 06:19:41;;;;;;;11.52;9.98;;;7.80;99.90;;;;;;5042729;28;20031;-76
2022/12/03 06:22:06;;;;;;;13.25;11.02;;;7.90;99.90;;;;;;5044358;28;20079;-77
2022/12/03 06:24:32;;;;;;;11.68;9.95;;;7.90;99.90;;;;;;5038608;28;20025;-77
2022/12/03 06:26:58;;;;;;;11.82;9.80;;;7.90;99.90;;;;;;5040147;28;20099;-77
2022/12/03 06:29:24;;;;;;;12.30;10.30;;;7.90;99.90;;;;;;5042601;28;20021;-77
2022/12/03 06:31:49;;;;;;;12.05;10.80;;;7.90;99.90;;;;;;5042489;28;20458;-76
2022/12/03 06:34:15;;;;;;;12.32;10.32;;;7.90;99.90;;;;;;5040180;28;20123;-77
2022/12/03 06:36:41;;;;;;;13.35;11.10;;;8.00;99.90;;;;;;5042369;28;20025;-77
2022/12/03 06:39:06;;;;;;;12.88;11.48;;;7.90;99.90;;;;;;5041973;28;20497;-78
2022/12/03 06:41:32;;;;;;;12.65;10.65;;;7.90;99.90;;;;;;5040008;28;20021;-77
2022/12/03 06:43:58;;;;;;;13.50;11.75;;;7.90;99.90;;;;;;5040163;28;20025;-77
2022/12/03 06:46:24;;;;;;;12.25;10.65;;;7.90;99.90;;;;;;5040707;28;20377;-77
2022/12/03 06:48:49;;;;;;;10.70;9.63;;;7.90;99.90;;;;;;5039488;28;20298;-77
2022/12/03 06:51:15;;;;;;;12.23;11.02;;;7.80;99.90;;;;;;5041569;28;20021;-77
2022/12/03 06:53:41;;;;;;;12.25;10.95;;;7.90;99.90;;;;;;5038356;28;20025;-77
2022/12/03 06:56:07;;;;;;;13.63;11.10;;;7.90;99.90;;;;;;5038973;28;20021;-77
2022/12/03 06:58:32;;;;;;;12.00;10.45;;;7.80;99.90;;;;;;5042692;28;20056;-77
2022/12/03 07:00:58;;;;;;;12.20;10.73;;;7.90;99.90;;;;;;5038601;28;20025;-77
2022/12/03 07:03:24;;;;;;;12.00;10.02;;;7.90;99.90;;;;;;5041960;28;20521;-77
2022/12/03 07:06:05;;;;;;;13.05;11.20;;;7.90;99.90;;;;;;5020821;28;20453;-77
2022/12/03 07:08:30;;;;;;;11.82;10.52;;;7.90;99.90;;;;;;5043502;28;20025;-77
2022/12/03 07:10:56;;;;;;;15.85;10.75;;;7.90;99.90;;;;;;5042330;28;20104;-77
2022/12/03 07:13:22;;;;;;;12.40;11.13;;;7.90;99.90;;;;;;5040308;28;20030;-77
2022/12/03 07:15:47;;;;;;;13.90;11.82;;;7.90;99.90;;;;;;5042133;28;20080;-77
2022/12/03 07:18:13;;;;;;;13.05;11.18;;;7.90;99.90;;;;;;5041898;28;20030;-77
2022/12/03 07:20:39;;;;;;;14.63;11.23;;;8.00;99.90;;;;;;5043298;28;20110;-77
2022/12/03 07:23:05;;;;;;;11.65;10.48;;;8.00;99.90;;;;;;5038123;28;20030;-77
2022/12/03 07:25:30;;;;;;;13.23;10.65;;;8.00;99.90;;;;;;5042984;28;20392;-77
2022/12/03 07:27:56;;;;;;;14.65;11.35;;;8.00;99.90;;;;;;5042368;28;20029;-77
2022/12/03 07:30:23;;;;;;;14.13;11.43;;;8.00;99.90;;;;;;5043216;28;20087;-77
2022/12/03 07:32:49;;;;;;;12.45;10.73;;;8.00;99.90;;;;;;5038955;28;20035;-77
2022/12/03 07:35:15;;;;;;;11.95;10.70;;;8.10;99.90;;;;;;5041927;28;20112;-77
2022/12/03 07:37:41;;;;;;;11.18;10.02;;;8.10;99.90;;;;;;5039470;28;20447;-77
2022/12/03 07:40:07;;;;;;;13.68;10.80;;;8.10;99.90;;;;;;5040232;28;20116;-77
2022/12/03 07:42:33;;;;;;;12.77;10.93;;;8.10;99.90;;;;;;5039086;28;20041;-77
2022/12/03 07:44:59;;;;;;;12.82;11.07;;;8.10;99.90;;;;;;5042130;28;20025;-78
2022/12/03 07:47:24;;;;;;;13.15;11.75;;;8.10;99.90;;;;;;5034529;28;20033;-77
2022/12/03 07:49:50;;;;;;;14.20;11.57;;;8.10;99.90;;;;;;5041623;28;20078;-77
2022/12/03 07:52:16;;;;;;;13.18;11.65;;;8.10;99.90;;;;;;5041846;28;20025;-78
2022/12/03 07:54:41;;;;;;;13.20;11.40;;;8.10;99.90;;;;;;5031191;28;20029;-77
2022/12/03 07:57:07;;;;;;;12.07;10.77;;;8.10;99.90;;;;;;5037121;28;20071;-78
2022/12/03 07:59:33;;;;;;;13.00;11.60;;;8.20;99.90;;;;;;5039157;28;20452;-77
2022/12/03 08:01:58;;;;;;;13.73;12.23;;;8.20;99.90;;;;;;5054836;28;20052;-77
2022/12/03 08:04:24;;;;;;;14.02;12.65;;;8.20;99.90;;;;;;5054896;28;20410;-76
2022/12/03 08:06:50;;;;;;;14.98;13.40;;;8.20;99.90;;;;;;5063511;28;20415;-76
2022/12/03 08:09:16;;;;;;;14.82;11.40;;;8.20;99.90;;;;;;5047178;28;20033;-78
2022/12/03 08:11:46;;;;;;;20.52;13.93;;;8.20;99.90;;;;;;5041576;28;20030;-78
2022/12/03 08:14:14;;;;;;;56.47;26.80;;;8.20;99.90;;;;;;5042974;28;20037;-78
2022/12/03 08:16:41;;;;;;;45.35;22.58;;;8.20;99.90;;;;;;5054301;28;20398;-77
2022/12/03 08:19:13;;;;;;;22.73;14.15;;;8.30;99.90;;;;;;5034698;28;20029;-77
2022/12/03 08:21:40;;;;;;;12.50;11.13;;;8.30;99.90;;;;;;5034543;28;20029;-77
2022/12/03 08:24:16;;;;;;;13.75;11.90;;;8.30;99.90;;;;;;5042329;28;20498;-77
2022/12/03 08:26:44;;;;;;;29.45;15.73;;;8.30;99.90;;;;;;5053151;28;20368;-77
2022/12/03 08:29:12;;;;;;;14.32;10.88;;;8.30;99.90;;;;;;5054314;28;20021;-77
2022/12/03 08:31:39;;;;;;;12.10;10.75;;;8.30;99.90;;;;;;5038093;28;20053;-77
2022/12/03 08:34:19;;;;;;;11.90;10.38;;;8.30;99.90;;;;;;5035785;28;20446;-78
2022/12/03 08:36:48;;;;;;;13.48;11.02;;;8.30;99.90;;;;;;5034586;28;20487;-77
2022/12/03 08:39:36;;;;;;;12.32;11.02;;;8.40;99.90;;;;;;5035552;28;20030;-76
2022/12/03 08:45:29;;;;;;;13.52;12.10;;;8.40;99.90;;;;;;5035584;28;20399;-77
2022/12/03 08:48:04;;;;;;;31.25;24.15;;;8.40;99.90;;;;;;5034054;28;20086;-77
2022/12/03 08:50:33;;;;;;;42.70;32.33;;;8.40;99.90;;;;;;5038920;28;20384;-77
2022/12/03 08:53:12;;;;;;;15.55;13.95;;;8.40;99.90;;;;;;5044966;28;20120;-77
2022/12/03 08:55:46;;;;;;;15.10;13.35;;;8.50;99.90;;;;;;5042775;28;20108;-77
2022/12/03 08:58:43;;;;;;;12.63;10.98;;;8.50;99.90;;;;;;5040852;28;20442;-77
2022/12/03 09:01:09;;;;;;;12.93;11.45;;;8.50;99.90;;;;;;5043702;28;20067;-77
2022/12/03 09:03:36;;;;;;;15.48;13.07;;;8.60;99.90;;;;;;5044021;28;20072;-77
2022/12/03 09:06:02;;;;;;;13.43;12.02;;;8.60;99.90;;;;;;5043269;28;20064;-77
2022/12/03 09:08:28;;;;;;;13.80;12.13;;;8.60;99.90;;;;;;5042189;28;20472;-78
2022/12/03 09:10:54;;;;;;;12.95;11.65;;;8.70;99.90;;;;;;5040273;28;20021;-77
2022/12/03 09:13:19;;;;;;;16.40;13.20;;;8.70;99.90;;;;;;5039922;28;20025;-77
2022/12/03 09:15:45;;;;;;;13.10;10.73;;;8.70;99.90;;;;;;5041966;28;20033;-78
2022/12/03 09:18:13;;;;;;;9.38;8.27;;;8.70;99.90;;;;;;5038512;28;20080;-78
2022/12/03 09:20:39;;;;;;;8.10;7.30;;;8.70;99.90;;;;;;5040349;28;20030;-77
2022/12/03 09:23:05;;;;;;;7.85;7.15;;;8.80;99.90;;;;;;5043932;28;20031;-77
2022/12/03 09:25:31;;;;;;;6.22;5.72;;;8.80;99.90;;;;;;5045396;28;20062;-77
2022/12/03 09:27:56;;;;;;;6.38;5.85;;;8.80;99.90;;;;;;5044945;28;20021;-77
2022/12/03 09:30:22;;;;;;;6.13;5.63;;;8.90;99.90;;;;;;5044722;28;20078;-77
2022/12/03 09:32:48;;;;;;;6.93;6.40;;;8.90;99.90;;;;;;5047504;28;20123;-77
2022/12/03 09:35:14;;;;;;;6.45;5.82;;;8.90;99.90;;;;;;5045225;28;20036;-77
2022/12/03 09:37:39;;;;;;;7.25;6.55;;;8.90;99.90;;;;;;5042747;28;20059;-77
2022/12/03 09:40:06;;;;;;;7.20;6.50;;;9.00;99.90;;;;;;5042576;28;20029;-77
2022/12/03 09:42:32;;;;;;;6.20;5.70;;;9.00;99.90;;;;;;5038994;28;20028;-77
2022/12/03 09:44:58;;;;;;;7.25;6.05;;;9.00;99.90;;;;;;5043446;28;20437;-78
2022/12/03 09:47:24;;;;;;;10.18;6.22;;;9.00;99.90;;;;;;5045881;28;20112;-77
2022/12/03 09:49:51;;;;;;;6.80;6.22;;;9.00;99.90;;;;;;5041346;28;20017;-77
2022/12/03 09:52:26;;;;;;;6.90;5.88;;;9.00;99.90;;;;;;5037611;28;20021;-78
2022/12/03 09:54:52;;;;;;;6.65;6.07;;;9.00;99.90;;;;;;5043704;28;20032;-77
2022/12/03 09:57:18;;;;;;;6.57;5.95;;;9.00;99.90;;;;;;5043602;28;20025;-77
2022/12/03 09:59:44;;;;;;;6.60;6.00;;;9.00;99.90;;;;;;5037234;28;20031;-78
2022/12/03 10:02:23;;;;;;;6.43;5.78;;;9.00;99.90;;;;;;5044872;28;20052;-77
2022/12/03 10:04:49;;;;;;;5.85;5.25;;;9.00;99.90;;;;;;5043230;28;20040;-77
2022/12/03 10:07:15;;;;;;;5.85;5.38;;;9.00;99.90;;;;;;5041339;28;20025;-77
2022/12/03 10:09:41;;;;;;;5.78;5.32;;;9.10;99.90;;;;;;5039957;28;20029;-77
2022/12/03 10:12:19;;;;;;;7.28;5.38;;;9.10;99.90;;;;;;5040599;28;20083;-77
2022/12/03 10:14:45;;;;;;;5.88;5.20;;;9.10;99.90;;;;;;5040925;28;20029;-77
2022/12/03 10:17:11;;;;;;;5.65;5.20;;;9.10;99.90;;;;;;5042872;28;20536;-77
2022/12/03 10:19:38;;;;;;;6.25;5.65;;;9.10;99.90;;;;;;5038933;28;20030;-77
2022/12/03 10:22:04;;;;;;;8.40;7.10;;;9.20;99.90;;;;;;5039921;28;20112;-77
2022/12/03 10:24:33;;;;;;;8.60;6.82;;;9.10;99.90;;;;;;5044030;28;20115;-77
2022/12/03 10:27:03;;;;;;;6.47;5.85;;;9.10;99.90;;;;;;5040499;28;20029;-77
2022/12/03 10:29:34;;;;;;;13.15;9.15;;;9.20;99.90;;;;;;5044190;28;20035;-77
2022/12/03 10:32:06;;;;;;;6.50;5.88;;;9.20;99.90;;;;;;5040849;28;20026;-76
2022/12/03 10:34:35;;;;;;;;;;;9.10;99.90;;;;;;5041908;28;20016;-77
2022/12/03 10:37:17;;;;;;;6.28;5.68;;;9.10;99.90;;;;;;5041811;28;19905;-77
2022/12/03 10:40:04;;;;;;;5.38;4.88;;;9.10;99.90;;;;;;5040545;28;20383;-77
2022/12/03 10:42:32;;;;;;;4.85;4.47;;;9.10;99.90;;;;;;5047141;28;20036;-76
2022/12/03 10:45:18;;;;;;;4.35;4.05;;;9.10;99.90;;;;;;5040776;28;20057;-77
2022/12/03 10:48:01;;;;;;;5.50;5.00;;;9.10;99.90;;;;;;5039082;28;20079;-77
2022/12/03 10:50:27;;;;;;;3.97;3.67;;;9.10;99.90;;;;;;5041101;28;20472;-77
2022/12/03 10:52:53;;;;;;;3.40;3.20;;;9.10;99.90;;;;;;5042557;28;20032;-77
2022/12/03 10:55:19;;;;;;;3.42;3.22;;;9.10;99.90;;;;;;5043584;28;20102;-77
2022/12/03 10:57:45;;;;;;;4.65;4.30;;;9.10;99.90;;;;;;5045090;28;20036;-76
2022/12/03 11:00:17;;;;;;;5.32;4.82;;;9.10;99.90;;;;;;5042361;28;20029;-77
2022/12/03 11:02:42;;;;;;;4.40;4.10;;;9.10;99.90;;;;;;5040893;28;20052;-77
2022/12/03 11:05:18;;;;;;;6.05;5.28;;;9.10;99.90;;;;;;5041960;28;20033;-77
2022/12/03 11:07:44;;;;;;;6.35;5.75;;;9.10;99.90;;;;;;5037888;28;20116;-77
2022/12/03 11:10:15;;;;;;;5.78;5.28;;;9.10;99.90;;;;;;5044064;28;20492;-77
2022/12/03 11:12:41;;;;;;;17.50;13.43;;;9.20;99.90;;;;;;5042620;28;20021;-78
2022/12/03 11:15:36;;;;;;;22.88;17.40;;;9.20;99.90;;;;;;5039851;28;20022;-77
2022/12/03 11:18:01;;;;;;;20.80;13.93;;;9.10;99.90;;;;;;5039732;28;20029;-77
2022/12/03 11:20:30;;;;;;;19.70;13.88;;;9.10;99.90;;;;;;5043708;28;20176;-78
2022/12/03 11:22:57;;;;;;;16.10;10.82;;;9.10;99.90;;;;;;5041844;28;20219;-77
2022/12/03 11:25:26;;;;;;;16.83;11.85;;;9.20;99.90;;;;;;5043236;28;20037;-77
2022/12/03 11:28:10;;;;;;;16.95;11.88;;;9.20;99.90;;;;;;5037586;28;20029;-77
2022/12/03 11:30:50;;;;;;;14.45;10.60;;;9.20;99.90;;;;;;5038195;28;20029;-78
2022/12/03 11:33:33;;;;;;;14.75;10.77;;;9.20;99.90;;;;;;5045040;28;20463;-77
2022/12/03 11:36:04;;;;;;;6.95;6.15;;;9.30;99.90;;;;;;5046236;28;20017;-77
2022/12/03 11:38:36;;;;;;;5.28;4.82;;;9.20;99.90;;;;;;5047085;28;20037;-77
2022/12/03 11:41:20;;;;;;;8.50;6.40;;;9.20;99.90;;;;;;5059409;28;20025;-77
2022/12/03 11:43:52;;;;;;;9.40;7.30;;;9.30;99.90;;;;;;5053449;28;20083;-77
2022/12/03 11:46:18;;;;;;;8.27;7.47;;;9.20;99.90;;;;;;5043176;28;20056;-77
2022/12/03 11:48:45;;;;;;;7.97;7.18;;;9.20;99.90;;;;;;5044745;28;20048;-77
2022/12/03 11:51:14;;;;;;;6.45;5.85;;;9.20;99.90;;;;;;5042958;28;20052;-77
2022/12/03 11:53:41;;;;;;;5.20;4.75;;;9.20;99.90;;;;;;5045977;28;20060;-78
2022/12/03 11:56:07;;;;;;;4.70;4.40;;;9.20;99.90;;;;;;5045807;28;20467;-77
2022/12/03 11:58:38;;;;;;;5.88;5.35;;;9.20;99.90;;;;;;5046689;28;20079;-77
2022/12/03 12:01:06;;;;;;;5.00;4.60;;;9.20;99.90;;;;;;5046355;28;20029;-77
2022/12/03 12:03:34;;;;;;;4.65;4.35;;;9.20;99.90;;;;;;5039175;28;20049;-77
2022/12/03 12:06:09;;;;;;;4.50;4.20;;;9.20;99.90;;;;;;5045359;28;20467;-77
2022/12/03 12:08:53;;;;;;;4.25;3.85;;;9.20;99.90;;;;;;5051947;28;20020;-77
2022/12/03 12:11:20;;;;;;;4.22;3.83;;;9.20;99.90;;;;;;5075728;28;20030;-77
2022/12/03 12:13:54;;;;;;;4.07;3.78;;;9.20;99.90;;;;;;5044982;28;20045;-77
2022/12/03 12:16:35;;;;;;;4.28;3.88;;;9.10;99.90;;;;;;5043189;28;20483;-77
2022/12/03 12:19:29;;;;;;;4.07;3.78;;;9.10;99.90;;;;;;5041427;28;20037;-77
2022/12/03 12:22:10;;;;;;;3.50;3.22;;;9.10;99.90;;;;;;5048325;28;20021;-77
2022/12/03 12:24:39;;;;;;;3.43;3.13;;;9.10;99.90;;;;;;5047085;28;20021;-78
2022/12/03 12:27:10;;;;;;;4.03;3.67;;;9.10;99.90;;;;;;5046109;28;20264;-77
2022/12/03 12:29:37;;;;;;;4.22;3.92;;;9.10;99.90;;;;;;5043694;28;20028;-77
2022/12/03 12:32:09;;;;;;;4.88;4.38;;;9.10;99.90;;;;;;5044019;28;20025;-78
2022/12/03 12:34:46;;;;;;;3.72;3.50;;;9.10;99.90;;;;;;5041586;28;20045;-77
2022/12/03 12:37:25;;;;;;;3.85;3.55;;;9.10;99.90;;;;;;5043394;28;20075;-77
2022/12/03 12:39:53;;;;;;;3.83;3.53;;;9.20;99.90;;;;;;5043241;28;20083;-77
2022/12/03 12:42:35;;;;;;;4.03;3.70;;;9.20;99.90;;;;;;5044038;28;20057;-77
2022/12/03 12:45:26;;;;;;;5.47;4.85;;;9.20;99.90;;;;;;5040380;28;20035;-77
2022/12/03 12:48:09;;;;;;;4.32;3.90;;;9.20;99.90;;;;;;5049931;28;20064;-77
2022/12/03 12:50:43;;;;;;;3.92;3.63;;;9.20;99.90;;;;;;5044644;28;20017;-77
2022/12/03 12:53:24;;;;;;;4.07;3.70;;;9.20;99.90;;;;;;5042084;28;20048;-77
2022/12/03 12:55:55;;;;;;;3.50;3.20;;;9.20;99.90;;;;;;5043248;28;20033;-78
2022/12/03 12:58:22;;;;;;;3.80;3.22;;;9.20;99.90;;;;;;5042878;28;20033;-78
2022/12/03 13:00:52;;;;;;;4.00;3.70;;;9.20;99.90;;;;;;5040595;28;20029;-78
2022/12/03 13:03:20;;;;;;;6.43;5.82;;;9.30;99.90;;;;;;5040644;28;20045;-78
2022/12/03 13:05:51;;;;;;;5.78;5.28;;;9.30;99.90;;;;;;5038471;28;20037;-78
2022/12/03 13:08:30;;;;;;;6.50;5.28;;;9.30;99.90;;;;;;5043202;28;20017;-78
2022/12/03 13:11:01;;;;;;;4.35;4.03;;;9.30;99.90;;;;;;5040175;28;20104;-79
2022/12/03 13:13:41;;;;;;;4.20;3.80;;;9.40;99.90;;;;;;5036264;28;20095;-78
2022/12/03 13:16:30;;;;;;;4.40;4.10;;;9.40;99.90;;;;;;5069502;28;20020;-79
2022/12/03 13:18:57;;;;;;;5.57;5.07;;;9.40;99.90;;;;;;5047111;28;20021;-78